createdAt,value
2019-05-21T00:01:37.536Z,14.50
2019-05-21T00:04:06.095Z,14.40
2019-05-21T00:06:34.551Z,14.40
2019-05-21T00:09:03.814Z,14.40
2019-05-21T00:11:33.004Z,14.40
2019-05-21T00:14:01.500Z,14.40
2019-05-21T00:16:30.372Z,14.30
2019-05-21T00:18:59.169Z,14.30
2019-05-21T00:21:27.695Z,14.20
2019-05-21T00:23:56.229Z,14.30
2019-05-21T00:26:25.121Z,14.30
2019-05-21T00:29:30.051Z,14.30
2019-05-21T00:32:35.390Z,14.30
2019-05-21T00:35:45.254Z,14.30
2019-05-21T00:38:52.106Z,14.20
2019-05-21T00:41:57.320Z,14.20
2019-05-21T00:44:25.775Z,14.20
2019-05-21T00:46:54.415Z,14.20
2019-05-21T00:49:23.236Z,14.20
2019-05-21T00:52:06.164Z,14.20
2019-05-21T00:54:21.903Z,14.20
2019-05-21T00:56:50.531Z,14.10
2019-05-21T00:59:19.416Z,14.10
2019-05-21T01:01:47.899Z,14.10
2019-05-21T01:04:16.430Z,14.10
2019-05-21T01:06:44.988Z,14.10
2019-05-21T01:09:13.442Z,14.00
2019-05-21T01:11:42.224Z,14.00
2019-05-21T01:14:10.759Z,14.00
2019-05-21T01:16:39.709Z,13.90
2019-05-21T01:19:08.415Z,13.90
2019-05-21T01:21:36.884Z,13.90
2019-05-21T01:24:05.998Z,14.00
2019-05-21T01:26:34.463Z,13.90
2019-05-21T01:29:03.283Z,13.90
2019-05-21T01:31:31.742Z,13.90
2019-05-21T01:34:00.286Z,13.90
2019-05-21T01:36:29.087Z,13.90
2019-05-21T01:38:57.576Z,13.90
2019-05-21T01:41:26.026Z,13.90
2019-05-21T01:43:54.839Z,13.90
2019-05-21T01:46:23.299Z,13.90
2019-05-21T01:48:51.786Z,13.90
2019-05-21T01:51:20.251Z,13.90
2019-05-21T01:53:48.814Z,13.90
2019-05-21T01:56:17.343Z,13.80
2019-05-21T01:58:46.251Z,13.80
2019-05-21T02:01:14.788Z,13.80
2019-05-21T02:03:43.328Z,13.80
2019-05-21T02:06:12.299Z,13.80
2019-05-21T02:08:40.863Z,13.80
2019-05-21T02:11:09.343Z,13.70
2019-05-21T02:13:37.799Z,13.70
2019-05-21T02:16:06.356Z,13.70
2019-05-21T02:18:35.123Z,13.70
2019-05-21T02:21:03.579Z,13.70
2019-05-21T02:23:32.064Z,13.70
2019-05-21T02:26:00.627Z,13.70
2019-05-21T02:28:29.167Z,13.70
2019-05-21T02:30:57.732Z,13.60
2019-05-21T02:33:26.269Z,13.60
2019-05-21T02:35:55.312Z,13.60
2019-05-21T02:38:24.012Z,13.60
2019-05-21T02:40:53.015Z,13.60
2019-05-21T02:43:21.595Z,13.50
2019-05-21T02:45:50.087Z,13.50
2019-05-21T02:48:18.689Z,13.50
2019-05-21T02:50:47.316Z,13.40
2019-05-21T02:53:15.777Z,13.40
2019-05-21T02:55:44.696Z,13.40
2019-05-21T02:58:13.309Z,13.40
2019-05-21T03:00:44.317Z,13.40
2019-05-21T03:03:17.589Z,13.40
2019-05-21T03:05:46.153Z,13.40
2019-05-21T03:08:14.762Z,13.40
2019-05-21T03:10:43.299Z,13.30
2019-05-21T03:13:11.851Z,13.30
2019-05-21T03:15:40.450Z,13.30
2019-05-21T03:18:09.017Z,13.30
2019-05-21T03:20:37.953Z,13.30
2019-05-21T03:23:06.501Z,13.30
2019-05-21T03:25:35.036Z,13.20
2019-05-21T03:28:03.524Z,13.20
2019-05-21T03:30:32.061Z,13.30
2019-05-21T03:33:00.688Z,13.30
2019-05-21T03:35:29.231Z,13.20
2019-05-21T03:37:57.949Z,13.20
2019-05-21T03:40:26.549Z,13.20
2019-05-21T03:42:55.062Z,13.30
2019-05-21T03:45:23.957Z,13.30
2019-05-21T03:47:52.793Z,13.20
2019-05-21T03:50:21.321Z,13.20
2019-05-21T03:52:49.871Z,13.20
2019-05-21T03:55:18.661Z,13.20
2019-05-21T03:57:47.162Z,13.20
2019-05-21T04:00:16.682Z,13.20
2019-05-21T04:02:45.236Z,13.20
2019-05-21T04:05:19.241Z,13.20
2019-05-21T04:07:47.795Z,13.20
2019-05-21T04:10:16.496Z,13.20
2019-05-21T04:12:46.758Z,13.20
2019-05-21T04:15:17.000Z,13.20
2019-05-21T04:18:02.782Z,13.20
2019-05-21T04:20:31.312Z,13.10
2019-05-21T04:22:59.866Z,13.10
2019-05-21T04:25:28.397Z,13.10
2019-05-21T04:27:56.914Z,13.10
2019-05-21T04:30:25.821Z,13.10
2019-05-21T04:32:54.331Z,13.10
2019-05-21T04:35:22.811Z,13.10
2019-05-21T04:37:51.344Z,13.10
2019-05-21T04:40:19.934Z,13.10
2019-05-21T04:42:48.745Z,13.10
2019-05-21T04:45:17.435Z,13.10
2019-05-21T04:47:45.891Z,13.10
2019-05-21T04:50:14.775Z,13.10
2019-05-21T04:52:43.248Z,13.10
2019-05-21T04:55:11.939Z,13.10
2019-05-21T04:57:40.392Z,13.00
2019-05-21T05:00:09.530Z,13.10
2019-05-21T05:02:37.988Z,13.10
2019-05-21T05:05:07.085Z,13.10
2019-05-21T05:07:35.676Z,13.10
2019-05-21T05:10:06.395Z,13.10
2019-05-21T05:12:34.916Z,13.20
2019-05-21T05:15:04.435Z,13.20
2019-05-21T05:17:32.936Z,13.20
2019-05-21T05:20:01.471Z,13.20
2019-05-21T05:22:30.284Z,13.20
2019-05-21T05:24:58.840Z,13.20
2019-05-21T05:27:27.394Z,13.20
2019-05-21T05:29:55.911Z,13.20
2019-05-21T05:32:24.698Z,13.20
2019-05-21T05:34:53.257Z,13.20
2019-05-21T05:37:21.788Z,13.20
2019-05-21T05:39:50.413Z,13.20
2019-05-21T05:42:18.943Z,13.20
2019-05-21T05:44:48.175Z,13.20
2019-05-21T05:47:16.706Z,13.20
2019-05-21T05:49:46.899Z,13.20
2019-05-21T05:52:15.436Z,13.20
2019-05-21T05:54:43.945Z,13.10
2019-05-21T05:57:12.750Z,13.20
2019-05-21T05:59:41.599Z,13.20
2019-05-21T06:02:10.084Z,13.20
2019-05-21T06:04:38.666Z,13.10
2019-05-21T06:07:07.196Z,13.20
2019-05-21T06:09:36.128Z,13.20
2019-05-21T06:12:04.802Z,13.20
2019-05-21T06:14:33.429Z,13.20
2019-05-21T06:17:02.101Z,13.20
2019-05-21T06:19:30.707Z,13.20
2019-05-21T06:21:59.232Z,13.20
2019-05-21T06:24:27.734Z,13.20
2019-05-21T06:26:56.255Z,13.20
2019-05-21T06:29:24.814Z,13.20
2019-05-21T06:31:53.345Z,13.20
2019-05-21T06:34:22.096Z,13.20
2019-05-21T06:36:50.696Z,13.20
2019-05-21T06:39:19.236Z,13.20
2019-05-21T06:41:47.791Z,13.20
2019-05-21T06:44:16.312Z,13.20
2019-05-21T06:46:44.791Z,13.20
2019-05-21T06:49:13.668Z,13.20
2019-05-21T06:51:42.156Z,13.30
2019-05-21T06:54:10.689Z,13.30
2019-05-21T06:56:39.255Z,13.30
2019-05-21T06:59:07.856Z,13.30
2019-05-21T07:01:36.422Z,13.30
2019-05-21T07:04:05.204Z,13.30
2019-05-21T07:06:33.751Z,13.30
2019-05-21T07:09:02.345Z,13.30
2019-05-21T07:11:30.974Z,13.40
2019-05-21T07:13:59.447Z,13.40
2019-05-21T07:16:27.929Z,13.40
2019-05-21T07:18:56.781Z,13.40
2019-05-21T07:21:25.332Z,13.40
2019-05-21T07:23:53.792Z,13.40
2019-05-21T07:26:22.427Z,13.40
2019-05-21T07:28:51.989Z,13.50
2019-05-21T07:31:21.355Z,13.50
2019-05-21T07:33:49.883Z,13.60
2019-05-21T07:36:18.871Z,13.60
2019-05-21T07:38:53.515Z,13.60
2019-05-21T07:41:20.220Z,13.70
2019-05-21T07:43:48.141Z,13.70
2019-05-21T07:46:16.759Z,13.70
2019-05-21T07:48:45.215Z,13.70
2019-05-21T07:51:13.788Z,13.70
2019-05-21T07:53:42.310Z,13.80
2019-05-21T07:56:11.168Z,13.80
2019-05-21T07:58:39.704Z,13.80
2019-05-21T08:01:08.263Z,13.80
2019-05-21T08:03:36.747Z,13.90
2019-05-21T08:06:05.348Z,13.80
2019-05-21T08:08:33.837Z,13.90
2019-05-21T08:11:02.387Z,13.90
2019-05-21T08:13:31.248Z,13.90
2019-05-21T08:15:59.800Z,14.00
2019-05-21T08:18:28.251Z,14.10
2019-05-21T08:20:56.799Z,14.10
2019-05-21T08:23:25.247Z,14.20
2019-05-21T08:25:53.723Z,14.30
2019-05-21T08:28:22.175Z,14.30
2019-05-21T08:30:50.665Z,14.40
2019-05-21T08:33:19.668Z,14.50
2019-05-21T08:35:48.239Z,14.50
2019-05-21T08:38:16.700Z,14.50
2019-05-21T08:40:45.185Z,14.50
2019-05-21T08:43:14.163Z,14.50
2019-05-21T08:45:43.048Z,14.50
2019-05-21T08:48:11.967Z,14.60
2019-05-21T08:50:41.359Z,14.60
2019-05-21T08:53:09.886Z,14.60
2019-05-21T08:55:38.488Z,14.60
2019-05-21T08:58:07.878Z,14.70
2019-05-21T09:00:36.908Z,14.60
2019-05-21T09:03:05.535Z,14.60
2019-05-21T09:05:33.991Z,14.60
2019-05-21T09:08:02.477Z,14.60
2019-05-21T09:10:31.075Z,14.60
2019-05-21T09:12:59.555Z,14.60
2019-05-21T09:15:28.013Z,14.60
2019-05-21T09:17:56.572Z,14.70
2019-05-21T09:20:25.249Z,14.70
2019-05-21T09:22:53.859Z,14.70
2019-05-21T09:25:22.315Z,14.80
2019-05-21T09:27:51.094Z,14.80
2019-05-21T09:30:21.859Z,14.80
2019-05-21T09:32:50.748Z,14.90
2019-05-21T09:35:19.361Z,15.00
2019-05-21T09:37:48.221Z,15.00
2019-05-21T09:40:18.480Z,15.10
2019-05-21T09:42:47.058Z,15.20
2019-05-21T09:45:15.951Z,15.30
2019-05-21T09:47:44.488Z,15.30
2019-05-21T09:50:13.784Z,15.30
2019-05-21T09:52:42.453Z,15.40
2019-05-21T09:55:11.350Z,15.50
2019-05-21T09:57:44.324Z,15.50
2019-05-21T10:00:34.144Z,15.70
2019-05-21T10:03:04.953Z,15.80
2019-05-21T10:05:33.515Z,16.00
2019-05-21T10:08:02.068Z,16.10
2019-05-21T10:10:30.626Z,16.20
2019-05-21T10:12:59.148Z,16.20
2019-05-21T10:15:27.671Z,16.40
2019-05-21T10:17:56.156Z,16.60
2019-05-21T10:20:24.675Z,16.70
2019-05-21T10:22:53.220Z,16.70
2019-05-21T10:25:21.753Z,16.70
2019-05-21T10:27:50.295Z,16.80
2019-05-21T10:30:18.887Z,17.10
2019-05-21T10:32:47.444Z,17.90
2019-05-21T10:35:16.039Z,18.40
2019-05-21T10:37:54.394Z,18.80
2019-05-21T10:40:14.984Z,19.20
2019-05-21T10:42:43.468Z,19.50
2019-05-21T10:45:12.656Z,19.90
2019-05-21T10:47:41.347Z,20.00
2019-05-21T10:50:10.014Z,20.10
2019-05-21T10:52:38.635Z,20.30
2019-05-21T10:55:08.973Z,20.50
2019-05-21T10:57:37.572Z,20.30
2019-05-21T11:00:10.091Z,20.10
2019-05-21T11:02:42.974Z,19.60
2019-05-21T11:05:15.811Z,19.30
2019-05-21T11:07:44.392Z,18.90
2019-05-21T11:10:14.045Z,18.80
2019-05-21T11:12:42.889Z,18.60
2019-05-21T11:15:12.027Z,18.30
2019-05-21T11:17:53.625Z,18.20
2019-05-21T11:20:11.664Z,18.10
2019-05-21T11:22:40.159Z,18.30
2019-05-21T11:25:08.855Z,18.40
2019-05-21T11:27:37.828Z,18.50
2019-05-21T11:30:08.092Z,18.70
2019-05-21T11:32:36.744Z,18.80
2019-05-21T11:35:09.041Z,19.10
2019-05-21T11:37:37.520Z,19.10
2019-05-21T11:40:08.739Z,19.20
2019-05-21T11:42:37.833Z,19.20
2019-05-21T11:45:08.332Z,19.20
2019-05-21T11:47:37.024Z,19.40
2019-05-21T11:50:07.789Z,19.40
2019-05-21T11:52:36.778Z,19.40
2019-05-21T11:55:06.922Z,19.30
2019-05-21T11:57:35.575Z,19.00
2019-05-21T12:00:06.209Z,18.60
2019-05-21T12:02:34.836Z,18.60
2019-05-21T12:05:04.340Z,18.60
2019-05-21T12:07:32.960Z,18.50
2019-05-21T12:10:01.437Z,18.50
2019-05-21T12:12:30.045Z,18.20
2019-05-21T12:14:58.906Z,18.00
2019-05-21T12:17:27.400Z,17.90
2019-05-21T12:19:56.217Z,17.80
2019-05-21T12:22:24.771Z,17.80
2019-05-21T12:24:53.226Z,17.80
2019-05-21T12:27:21.704Z,17.80
2019-05-21T12:29:50.165Z,18.10
2019-05-21T12:32:21.143Z,18.90
2019-05-21T12:34:49.256Z,19.10
2019-05-21T12:37:17.894Z,19.00
2019-05-21T12:39:46.493Z,18.80
2019-05-21T12:42:15.049Z,18.60
2019-05-21T12:44:43.591Z,18.40
2019-05-21T12:47:12.207Z,18.30
2019-05-21T12:49:40.744Z,18.20
2019-05-21T12:52:09.434Z,18.10
2019-05-21T12:54:37.915Z,17.90
2019-05-21T12:57:06.467Z,17.80
2019-05-21T12:59:34.995Z,17.70
2019-05-21T13:02:03.884Z,17.50
2019-05-21T13:04:32.479Z,17.50
2019-05-21T13:07:00.968Z,17.40
2019-05-21T13:09:32.942Z,17.40
2019-05-21T13:12:00.056Z,17.50
2019-05-21T13:14:28.584Z,17.50
2019-05-21T13:16:57.143Z,17.40
2019-05-21T13:19:25.609Z,17.50
2019-05-21T13:21:54.171Z,17.60
2019-05-21T13:24:22.674Z,17.60
2019-05-21T13:26:51.568Z,17.60
2019-05-21T13:29:20.176Z,17.50
2019-05-21T13:31:48.732Z,17.50
2019-05-21T13:34:17.263Z,17.50
2019-05-21T13:36:46.123Z,17.40
2019-05-21T13:39:14.997Z,17.40
2019-05-21T13:41:43.883Z,17.40
2019-05-21T13:44:12.681Z,17.30
2019-05-21T13:46:41.252Z,17.30
2019-05-21T13:49:09.779Z,17.30
2019-05-21T13:51:38.632Z,17.30
2019-05-21T13:54:07.551Z,17.20
2019-05-21T13:56:36.084Z,17.20
2019-05-21T13:59:04.544Z,17.10
2019-05-21T14:01:40.669Z,17.10
2019-05-21T14:04:04.626Z,17.10
2019-05-21T14:06:33.239Z,17.20
2019-05-21T14:09:01.987Z,17.20
2019-05-21T14:11:30.469Z,17.20
2019-05-21T14:13:59.119Z,17.20
2019-05-21T14:16:27.687Z,17.20
2019-05-21T14:18:56.257Z,17.10
2019-05-21T14:21:24.921Z,17.10
2019-05-21T14:23:53.409Z,17.10
2019-05-21T14:26:21.936Z,17.10
2019-05-21T14:28:50.487Z,17.10
2019-05-21T14:31:18.944Z,17.00
2019-05-21T14:33:47.504Z,16.90
2019-05-21T14:36:15.971Z,16.80
2019-05-21T14:38:44.521Z,16.80
2019-05-21T14:41:13.052Z,16.80
2019-05-21T14:43:41.603Z,16.80
2019-05-21T14:46:10.316Z,16.80
2019-05-21T14:48:38.946Z,16.80
2019-05-21T14:51:07.540Z,16.70
2019-05-21T14:53:36.022Z,16.80
2019-05-21T14:56:04.617Z,16.80
2019-05-21T14:58:33.094Z,16.80
2019-05-21T15:01:01.567Z,16.80
2019-05-21T15:03:30.119Z,16.80
2019-05-21T15:05:58.719Z,16.80
2019-05-21T15:08:27.276Z,16.80
2019-05-21T15:10:55.803Z,16.80
2019-05-21T15:13:24.292Z,16.80
2019-05-21T15:15:52.816Z,16.70
2019-05-21T15:18:22.449Z,16.70
2019-05-21T15:21:01.581Z,16.70
2019-05-21T15:23:30.195Z,16.70
2019-05-21T15:25:58.729Z,16.60
2019-05-21T15:28:27.311Z,16.50
2019-05-21T15:30:56.116Z,16.50
2019-05-21T15:33:24.664Z,16.40
2019-05-21T15:35:53.121Z,16.40
2019-05-21T15:38:21.968Z,16.30
2019-05-21T15:41:08.873Z,16.30
2019-05-21T15:43:21.047Z,16.30
2019-05-21T15:45:49.568Z,16.30
2019-05-21T15:48:18.063Z,16.20
2019-05-21T15:50:46.936Z,16.20
2019-05-21T15:53:15.503Z,16.20
2019-05-21T15:55:44.101Z,16.10
2019-05-21T15:58:12.700Z,16.10
2019-05-21T16:00:41.685Z,16.00
2019-05-21T16:03:10.589Z,15.90
2019-05-21T16:05:39.131Z,15.90
2019-05-21T16:08:07.653Z,15.80
2019-05-21T16:10:36.284Z,15.90
2019-05-21T16:13:04.818Z,15.80
2019-05-21T16:15:33.375Z,15.80
2019-05-21T16:18:01.895Z,15.80
2019-05-21T16:20:30.591Z,15.70
2019-05-21T16:22:59.048Z,15.70
2019-05-21T16:25:27.936Z,15.70
2019-05-21T16:27:56.484Z,15.70
2019-05-21T16:30:25.408Z,15.70
2019-05-21T16:32:54.031Z,15.70
2019-05-21T16:35:22.703Z,15.70
2019-05-21T16:37:51.399Z,15.60
2019-05-21T16:40:20.021Z,15.60
2019-05-21T16:42:48.620Z,15.60
2019-05-21T16:45:17.623Z,15.50
2019-05-21T16:47:46.940Z,15.50
2019-05-21T16:50:15.931Z,15.50
2019-05-21T16:52:45.324Z,15.40
2019-05-21T16:55:14.644Z,15.30
2019-05-21T16:57:43.257Z,15.40
2019-05-21T17:00:16.192Z,15.30
2019-05-21T17:02:44.867Z,15.40
2019-05-21T17:05:14.789Z,15.30
2019-05-21T17:07:43.390Z,15.40
2019-05-21T17:10:13.813Z,15.30
2019-05-21T17:12:42.345Z,15.20
2019-05-21T17:15:12.381Z,15.10
2019-05-21T17:17:40.899Z,15.00
2019-05-21T17:20:10.635Z,15.00
2019-05-21T17:22:39.164Z,15.00
2019-05-21T17:25:08.983Z,14.90
2019-05-21T17:27:37.607Z,14.90
2019-05-21T17:30:10.965Z,14.90
2019-05-21T17:32:39.499Z,14.80
2019-05-21T17:35:08.690Z,14.80
2019-05-21T17:37:37.468Z,14.80
2019-05-21T17:40:06.571Z,14.80
2019-05-21T17:42:35.151Z,14.70
2019-05-21T17:45:05.944Z,14.70
2019-05-21T17:47:34.527Z,14.70
2019-05-21T17:50:03.779Z,14.70
2019-05-21T17:52:32.235Z,14.60
2019-05-21T17:55:00.725Z,14.60
2019-05-21T17:57:31.273Z,14.60
2019-05-21T17:59:59.828Z,14.60
2019-05-21T18:02:29.303Z,14.60
2019-05-21T18:04:58.631Z,14.60
2019-05-21T18:07:27.828Z,14.50
2019-05-21T18:09:56.816Z,14.50
2019-05-21T18:12:31.960Z,14.50
2019-05-21T18:14:57.538Z,14.50
2019-05-21T18:17:28.012Z,14.50
2019-05-21T18:19:57.043Z,14.50
2019-05-21T18:22:26.667Z,14.50
2019-05-21T18:24:55.212Z,14.50
2019-05-21T18:27:24.117Z,14.50
2019-05-21T18:29:52.741Z,14.50
2019-05-21T18:32:21.348Z,14.50
2019-05-21T18:34:49.908Z,14.50
2019-05-21T18:37:18.458Z,14.40
2019-05-21T18:39:46.983Z,14.40
2019-05-21T18:42:22.238Z,14.40
2019-05-21T18:44:45.964Z,14.40
2019-05-21T18:47:14.522Z,14.30
2019-05-21T18:49:43.060Z,14.30
2019-05-21T18:52:11.663Z,14.20
2019-05-21T18:54:40.232Z,14.30
2019-05-21T18:57:08.827Z,14.20
2019-05-21T18:59:37.655Z,14.20
2019-05-21T19:02:06.584Z,14.20
2019-05-21T19:04:36.521Z,14.20
2019-05-21T19:07:05.396Z,14.20
2019-05-21T19:09:34.124Z,14.20
2019-05-21T19:12:03.279Z,14.10
2019-05-21T19:14:32.140Z,14.20
2019-05-21T19:17:00.744Z,14.20
2019-05-21T19:19:29.226Z,14.20
2019-05-21T19:21:57.697Z,14.10
2019-05-21T19:24:26.261Z,14.10
2019-05-21T19:26:54.867Z,14.10
2019-05-21T19:29:23.367Z,14.20
2019-05-21T19:31:52.311Z,14.10
2019-05-21T19:34:20.844Z,14.20
2019-05-21T19:36:49.403Z,14.20
2019-05-21T19:39:18.102Z,14.20
2019-05-21T19:41:46.806Z,14.10
2019-05-21T19:44:15.346Z,14.10
2019-05-21T19:46:44.039Z,14.10
2019-05-21T19:49:12.504Z,14.10
2019-05-21T19:51:41.063Z,14.10
2019-05-21T19:54:10.036Z,14.10
2019-05-21T19:56:38.646Z,14.00
2019-05-21T19:59:07.207Z,14.00
2019-05-21T20:01:35.670Z,14.00
2019-05-21T20:04:04.647Z,14.00
2019-05-21T20:06:33.108Z,13.90
2019-05-21T20:09:02.540Z,14.00
2019-05-21T20:11:31.347Z,13.90
2019-05-21T20:14:00.171Z,13.90
2019-05-21T20:16:29.180Z,13.90
2019-05-21T20:18:59.165Z,13.90
2019-05-21T20:21:29.637Z,13.90
2019-05-21T20:23:58.379Z,13.90
2019-05-21T20:26:28.792Z,13.90
2019-05-21T20:28:57.251Z,13.90
2019-05-21T20:31:25.859Z,14.00
2019-05-21T20:33:54.783Z,13.90
2019-05-21T20:36:23.390Z,13.90
2019-05-21T20:38:52.588Z,13.90
2019-05-21T20:41:23.350Z,13.90
2019-05-21T20:43:59.105Z,13.80
2019-05-21T20:46:23.500Z,13.80
2019-05-21T20:48:52.932Z,13.80
2019-05-21T20:51:22.235Z,13.80
2019-05-21T20:53:50.944Z,13.80
2019-05-21T20:56:19.528Z,13.80
2019-05-21T20:58:48.372Z,13.80
2019-05-21T21:01:16.868Z,13.70
2019-05-21T21:03:45.530Z,13.70
2019-05-21T21:06:14.473Z,13.70
2019-05-21T21:08:44.128Z,13.70
2019-05-21T21:11:14.364Z,13.60
2019-05-21T21:13:43.041Z,13.60
2019-05-21T21:16:11.645Z,13.60
2019-05-21T21:18:40.156Z,13.60
2019-05-21T21:21:08.909Z,13.60
2019-05-21T21:23:38.705Z,13.60
2019-05-21T21:26:08.393Z,13.60
2019-05-21T21:28:36.995Z,13.60
2019-05-21T21:31:05.904Z,13.60
2019-05-21T21:33:34.427Z,13.60
2019-05-21T21:36:03.928Z,13.60
2019-05-21T21:38:34.168Z,13.60
2019-05-21T21:41:02.904Z,13.60
2019-05-21T21:43:31.388Z,13.60
2019-05-21T21:46:00.111Z,13.60
2019-05-21T21:48:29.150Z,13.60
2019-05-21T21:50:59.072Z,13.60
2019-05-21T21:53:27.631Z,13.60
2019-05-21T21:55:56.427Z,13.60
2019-05-21T21:58:24.996Z,13.60
2019-05-21T22:01:13.293Z,13.60
2019-05-21T22:03:44.022Z,13.60
2019-05-21T22:06:16.986Z,13.60
2019-05-21T22:08:46.387Z,13.60
2019-05-21T22:11:15.307Z,13.60
2019-05-21T22:13:43.837Z,13.60
2019-05-21T22:16:12.836Z,13.60
2019-05-21T22:18:41.660Z,13.60
2019-05-21T22:21:10.292Z,13.50
2019-05-21T22:23:39.060Z,13.60
2019-05-21T22:26:07.544Z,13.50
2019-05-21T22:28:36.711Z,13.60
2019-05-21T22:31:05.699Z,13.50
2019-05-21T22:33:34.164Z,13.50
2019-05-21T22:36:03.440Z,13.50
2019-05-21T22:38:32.504Z,13.50
2019-05-21T22:41:01.576Z,13.50
2019-05-21T22:43:30.475Z,13.50
2019-05-21T22:45:59.319Z,13.50
2019-05-21T22:48:27.875Z,13.60
2019-05-21T22:50:56.858Z,13.50
2019-05-21T22:53:25.480Z,13.60
2019-05-21T22:55:54.040Z,13.60
2019-05-21T22:58:22.569Z,13.60
2019-05-21T23:00:51.767Z,13.60
2019-05-21T23:03:20.227Z,13.50
2019-05-21T23:05:48.783Z,13.50
2019-05-21T23:08:19.032Z,13.40
2019-05-21T23:10:47.534Z,13.40
2019-05-21T23:13:16.202Z,13.40
2019-05-21T23:15:45.108Z,13.40
2019-05-21T23:18:14.112Z,13.50
2019-05-21T23:20:43.383Z,13.50
2019-05-21T23:23:12.928Z,13.40
2019-05-21T23:25:43.536Z,13.40
2019-05-21T23:28:12.691Z,13.40
2019-05-21T23:30:41.287Z,13.40
2019-05-21T23:33:10.640Z,13.40
2019-05-21T23:35:40.535Z,13.40
2019-05-21T23:38:09.455Z,13.40
2019-05-21T23:40:38.419Z,13.40
2019-05-21T23:43:08.426Z,13.40
2019-05-21T23:45:36.980Z,13.40
2019-05-21T23:48:06.579Z,13.40
2019-05-21T23:50:35.135Z,13.40
2019-05-21T23:53:04.137Z,13.30
2019-05-21T23:55:33.240Z,13.30
2019-05-21T23:58:01.787Z,13.30
